sensor_id;sensor_type;location;lat;lon;timestamp;temperature;humidity
7494;DHT22;3788;49.902;8.590;2023-02-22T00:01:15;6.60;99.90
7494;DHT22;3788;49.902;8.590;2023-02-22T00:03:54;6.60;99.90
7494;DHT22;3788;49.902;8.590;2023-02-22T00:06:21;6.70;99.90
7494;DHT22;3788;49.902;8.590;2023-02-22T00:08:49;6.70;99.90
7494;DHT22;3788;49.902;8.590;2023-02-22T00:11:17;6.70;99.90
7494;DHT22;3788;49.902;8.590;2023-02-22T00:13:45;6.70;99.90
7494;DHT22;3788;49.902;8.590;2023-02-22T00:16:16;6.70;99.90
7494;DHT22;3788;49.902;8.590;2023-02-22T00:18:43;6.70;99.90
7494;DHT22;3788;49.902;8.590;2023-02-22T00:21:13;6.70;99.90
7494;DHT22;3788;49.902;8.590;2023-02-22T00:23:44;6.70;99.90
7494;DHT22;3788;49.902;8.590;2023-02-22T00:26:12;6.70;99.90
7494;DHT22;3788;49.902;8.590;2023-02-22T00:28:43;6.70;99.90
7494;DHT22;3788;49.902;8.590;2023-02-22T00:31:10;6.70;99.90
7494;DHT22;3788;49.902;8.590;2023-02-22T00:33:38;6.70;99.90
7494;DHT22;3788;49.902;8.590;2023-02-22T00:36:05;6.70;99.90
7494;DHT22;3788;49.902;8.590;2023-02-22T00:38:33;6.70;99.90
7494;DHT22;3788;49.902;8.590;2023-02-22T00:41:00;6.70;99.90
7494;DHT22;3788;49.902;8.590;2023-02-22T00:43:26;6.60;99.90
7494;DHT22;3788;49.902;8.590;2023-02-22T00:45:53;6.50;99.90
7494;DHT22;3788;49.902;8.590;2023-02-22T00:48:21;6.40;99.90
7494;DHT22;3788;49.902;8.590;2023-02-22T00:50:48;6.40;99.90
7494;DHT22;3788;49.902;8.590;2023-02-22T00:53:20;6.30;99.90
7494;DHT22;3788;49.902;8.590;2023-02-22T00:55:49;6.30;99.90
7494;DHT22;3788;49.902;8.590;2023-02-22T00:58:16;6.30;99.90
7494;DHT22;3788;49.902;8.590;2023-02-22T01:00:43;6.30;99.90
7494;DHT22;3788;49.902;8.590;2023-02-22T01:03:11;6.20;99.90
7494;DHT22;3788;49.902;8.590;2023-02-22T01:05:39;6.20;99.90
7494;DHT22;3788;49.902;8.590;2023-02-22T01:08:07;6.20;99.90
7494;DHT22;3788;49.902;8.590;2023-02-22T01:10:35;6.10;99.90
7494;DHT22;3788;49.902;8.590;2023-02-22T01:13:04;6.10;99.90
7494;DHT22;3788;49.902;8.590;2023-02-22T01:15:33;6.10;99.90
7494;DHT22;3788;49.902;8.590;2023-02-22T01:18:01;6.00;99.90
7494;DHT22;3788;49.902;8.590;2023-02-22T01:20:29;6.00;99.90
7494;DHT22;3788;49.902;8.590;2023-02-22T01:22:58;5.90;99.90
7494;DHT22;3788;49.902;8.590;2023-02-22T01:25:27;5.90;99.90
7494;DHT22;3788;49.902;8.590;2023-02-22T01:27:56;5.80;99.90
7494;DHT22;3788;49.902;8.590;2023-02-22T01:30:26;5.80;99.90
7494;DHT22;3788;49.902;8.590;2023-02-22T01:32:53;5.80;99.90
7494;DHT22;3788;49.902;8.590;2023-02-22T01:35:22;5.70;99.90
7494;DHT22;3788;49.902;8.590;2023-02-22T01:37:49;5.70;99.90
7494;DHT22;3788;49.902;8.590;2023-02-22T01:40:18;5.60;99.90
7494;DHT22;3788;49.902;8.590;2023-02-22T01:42:47;5.50;99.90
7494;DHT22;3788;49.902;8.590;2023-02-22T01:45:58;5.50;99.90
7494;DHT22;3788;49.902;8.590;2023-02-22T01:48:31;5.40;99.90
7494;DHT22;3788;49.902;8.590;2023-02-22T01:51:02;5.40;99.90
7494;DHT22;3788;49.902;8.590;2023-02-22T01:53:42;5.30;99.90
7494;DHT22;3788;49.902;8.590;2023-02-22T01:56:11;5.20;99.90
7494;DHT22;3788;49.902;8.590;2023-02-22T01:58:42;5.20;99.90
7494;DHT22;3788;49.902;8.590;2023-02-22T02:01:11;5.20;99.90
7494;DHT22;3788;49.902;8.590;2023-02-22T02:03:39;5.20;99.90
7494;DHT22;3788;49.902;8.590;2023-02-22T02:06:09;5.10;99.90
7494;DHT22;3788;49.902;8.590;2023-02-22T02:08:44;5.10;99.90
7494;DHT22;3788;49.902;8.590;2023-02-22T02:11:15;5.10;99.90
7494;DHT22;3788;49.902;8.590;2023-02-22T02:13:43;5.00;99.90
7494;DHT22;3788;49.902;8.590;2023-02-22T02:16:11;5.00;99.90
7494;DHT22;3788;49.902;8.590;2023-02-22T02:18:39;5.00;99.90
7494;DHT22;3788;49.902;8.590;2023-02-22T02:21:40;4.90;99.90
7494;DHT22;3788;49.902;8.590;2023-02-22T02:24:37;4.90;99.90
7494;DHT22;3788;49.902;8.590;2023-02-22T02:27:15;4.80;99.90
7494;DHT22;3788;49.902;8.590;2023-02-22T02:32:56;4.80;99.90
7494;DHT22;3788;49.902;8.590;2023-02-22T02:35:32;4.80;99.90
7494;DHT22;3788;49.902;8.590;2023-02-22T02:38:06;4.90;99.90
7494;DHT22;3788;49.902;8.590;2023-02-22T02:40:40;4.80;99.90
7494;DHT22;3788;49.902;8.590;2023-02-22T02:43:14;4.80;99.90
7494;DHT22;3788;49.902;8.590;2023-02-22T02:45:45;4.80;99.90
7494;DHT22;3788;49.902;8.590;2023-02-22T02:48:16;4.90;99.90
7494;DHT22;3788;49.902;8.590;2023-02-22T02:50:46;4.90;99.90
7494;DHT22;3788;49.902;8.590;2023-02-22T02:53:17;4.90;99.90
7494;DHT22;3788;49.902;8.590;2023-02-22T02:55:44;4.80;99.90
7494;DHT22;3788;49.902;8.590;2023-02-22T02:58:17;4.80;99.90
7494;DHT22;3788;49.902;8.590;2023-02-22T03:00:45;4.80;99.90
7494;DHT22;3788;49.902;8.590;2023-02-22T03:03:33;4.80;99.90
7494;DHT22;3788;49.902;8.590;2023-02-22T03:06:13;4.80;99.90
7494;DHT22;3788;49.902;8.590;2023-02-22T03:08:45;4.80;99.90
7494;DHT22;3788;49.902;8.590;2023-02-22T03:11:17;4.70;99.90
7494;DHT22;3788;49.902;8.590;2023-02-22T03:13:50;4.70;99.90
7494;DHT22;3788;49.902;8.590;2023-02-22T03:16:25;4.70;99.90
7494;DHT22;3788;49.902;8.590;2023-02-22T03:19:01;4.80;99.90
7494;DHT22;3788;49.902;8.590;2023-02-22T03:21:35;4.80;99.90
7494;DHT22;3788;49.902;8.590;2023-02-22T03:24:08;4.80;99.90
7494;DHT22;3788;49.902;8.590;2023-02-22T03:26:44;4.80;99.90
7494;DHT22;3788;49.902;8.590;2023-02-22T03:29:13;4.80;99.90
7494;DHT22;3788;49.902;8.590;2023-02-22T03:31:45;4.80;99.90
7494;DHT22;3788;49.902;8.590;2023-02-22T03:34:19;4.80;99.90
7494;DHT22;3788;49.902;8.590;2023-02-22T03:36:50;4.80;99.90
7494;DHT22;3788;49.902;8.590;2023-02-22T03:39:21;4.80;99.90
7494;DHT22;3788;49.902;8.590;2023-02-22T03:41:56;4.70;99.90
7494;DHT22;3788;49.902;8.590;2023-02-22T03:44:26;4.70;99.90
7494;DHT22;3788;49.902;8.590;2023-02-22T03:46:59;4.70;99.90
7494;DHT22;3788;49.902;8.590;2023-02-22T03:49:32;4.60;99.90
7494;DHT22;3788;49.902;8.590;2023-02-22T03:52:01;4.60;99.90
7494;DHT22;3788;49.902;8.590;2023-02-22T03:54:28;4.60;99.90
7494;DHT22;3788;49.902;8.590;2023-02-22T03:56:57;4.70;99.90
7494;DHT22;3788;49.902;8.590;2023-02-22T03:59:26;4.70;99.90
7494;DHT22;3788;49.902;8.590;2023-02-22T04:01:54;4.60;99.90
7494;DHT22;3788;49.902;8.590;2023-02-22T04:04:22;4.60;99.90
7494;DHT22;3788;49.902;8.590;2023-02-22T04:06:50;4.60;99.90
7494;DHT22;3788;49.902;8.590;2023-02-22T04:09:17;4.60;99.90
7494;DHT22;3788;49.902;8.590;2023-02-22T04:11:44;4.60;99.90
7494;DHT22;3788;49.902;8.590;2023-02-22T04:14:12;4.50;99.90
7494;DHT22;3788;49.902;8.590;2023-02-22T04:16:39;4.50;99.90
7494;DHT22;3788;49.902;8.590;2023-02-22T04:19:06;4.50;99.90
7494;DHT22;3788;49.902;8.590;2023-02-22T04:21:33;4.50;99.90
7494;DHT22;3788;49.902;8.590;2023-02-22T04:24:02;4.50;99.90
7494;DHT22;3788;49.902;8.590;2023-02-22T04:26:28;4.40;99.90
7494;DHT22;3788;49.902;8.590;2023-02-22T04:28:55;4.40;99.90
7494;DHT22;3788;49.902;8.590;2023-02-22T04:31:22;4.40;99.90
7494;DHT22;3788;49.902;8.590;2023-02-22T04:33:49;4.50;99.90
7494;DHT22;3788;49.902;8.590;2023-02-22T04:36:16;4.50;99.90
7494;DHT22;3788;49.902;8.590;2023-02-22T04:38:43;4.50;99.90
7494;DHT22;3788;49.902;8.590;2023-02-22T04:41:11;4.50;99.90
7494;DHT22;3788;49.902;8.590;2023-02-22T04:43:38;4.50;99.90
7494;DHT22;3788;49.902;8.590;2023-02-22T04:46:05;4.50;99.90
7494;DHT22;3788;49.902;8.590;2023-02-22T04:48:32;4.40;99.90
7494;DHT22;3788;49.902;8.590;2023-02-22T04:50:59;4.40;99.90
7494;DHT22;3788;49.902;8.590;2023-02-22T04:53:25;4.40;99.90
7494;DHT22;3788;49.902;8.590;2023-02-22T04:55:52;4.40;99.90
7494;DHT22;3788;49.902;8.590;2023-02-22T04:58:21;4.30;99.90
7494;DHT22;3788;49.902;8.590;2023-02-22T05:00:47;4.30;99.90
7494;DHT22;3788;49.902;8.590;2023-02-22T05:03:14;4.30;99.90
7494;DHT22;3788;49.902;8.590;2023-02-22T05:05:41;4.20;99.90
7494;DHT22;3788;49.902;8.590;2023-02-22T05:08:08;4.20;99.90
7494;DHT22;3788;49.902;8.590;2023-02-22T05:10:35;4.20;99.90
7494;DHT22;3788;49.902;8.590;2023-02-22T05:13:02;4.20;99.90
7494;DHT22;3788;49.902;8.590;2023-02-22T05:15:31;4.20;99.90
7494;DHT22;3788;49.902;8.590;2023-02-22T05:17:58;4.20;99.90
7494;DHT22;3788;49.902;8.590;2023-02-22T05:20:27;4.20;99.90
7494;DHT22;3788;49.902;8.590;2023-02-22T05:22:56;4.20;99.90
7494;DHT22;3788;49.902;8.590;2023-02-22T05:25:23;4.20;99.90
7494;DHT22;3788;49.902;8.590;2023-02-22T05:27:51;4.20;99.90
7494;DHT22;3788;49.902;8.590;2023-02-22T05:30:19;4.20;99.90
7494;DHT22;3788;49.902;8.590;2023-02-22T05:32:49;4.10;99.90
7494;DHT22;3788;49.902;8.590;2023-02-22T05:35:16;4.10;99.90
7494;DHT22;3788;49.902;8.590;2023-02-22T05:37:43;4.00;99.90
7494;DHT22;3788;49.902;8.590;2023-02-22T05:40:11;4.00;99.90
7494;DHT22;3788;49.902;8.590;2023-02-22T05:42:39;4.00;99.90
7494;DHT22;3788;49.902;8.590;2023-02-22T05:45:06;4.00;99.90
7494;DHT22;3788;49.902;8.590;2023-02-22T05:47:33;3.90;99.90
7494;DHT22;3788;49.902;8.590;2023-02-22T05:50:02;4.00;99.90
7494;DHT22;3788;49.902;8.590;2023-02-22T05:52:28;4.00;99.90
7494;DHT22;3788;49.902;8.590;2023-02-22T05:54:56;4.10;99.90
7494;DHT22;3788;49.902;8.590;2023-02-22T05:57:23;4.10;99.90
7494;DHT22;3788;49.902;8.590;2023-02-22T05:59:49;4.20;99.90
7494;DHT22;3788;49.902;8.590;2023-02-22T06:02:16;4.20;99.90
7494;DHT22;3788;49.902;8.590;2023-02-22T06:04:43;4.20;99.90
7494;DHT22;3788;49.902;8.590;2023-02-22T06:07:12;4.10;99.90
7494;DHT22;3788;49.902;8.590;2023-02-22T06:09:39;4.10;99.90
7494;DHT22;3788;49.902;8.590;2023-02-22T06:12:07;4.10;99.90
7494;DHT22;3788;49.902;8.590;2023-02-22T06:14:34;4.00;99.90
7494;DHT22;3788;49.902;8.590;2023-02-22T06:17:01;4.00;99.90
7494;DHT22;3788;49.902;8.590;2023-02-22T06:19:27;4.00;99.90
7494;DHT22;3788;49.902;8.590;2023-02-22T06:21:55;4.00;99.90
7494;DHT22;3788;49.902;8.590;2023-02-22T06:24:26;4.00;99.90
7494;DHT22;3788;49.902;8.590;2023-02-22T06:26:54;4.00;99.90
7494;DHT22;3788;49.902;8.590;2023-02-22T06:29:21;3.90;99.90
7494;DHT22;3788;49.902;8.590;2023-02-22T06:31:47;3.90;99.90
7494;DHT22;3788;49.902;8.590;2023-02-22T06:34:14;3.90;99.90
7494;DHT22;3788;49.902;8.590;2023-02-22T06:36:41;3.80;99.90
7494;DHT22;3788;49.902;8.590;2023-02-22T06:39:08;3.80;99.90
7494;DHT22;3788;49.902;8.590;2023-02-22T06:41:38;3.80;99.90
7494;DHT22;3788;49.902;8.590;2023-02-22T06:44:05;3.90;99.90
7494;DHT22;3788;49.902;8.590;2023-02-22T06:46:32;3.90;99.90
7494;DHT22;3788;49.902;8.590;2023-02-22T06:48:59;3.90;99.90
7494;DHT22;3788;49.902;8.590;2023-02-22T06:51:26;3.90;99.90
7494;DHT22;3788;49.902;8.590;2023-02-22T06:53:53;4.00;99.90
7494;DHT22;3788;49.902;8.590;2023-02-22T06:56:20;4.00;99.90
7494;DHT22;3788;49.902;8.590;2023-02-22T06:58:48;4.00;99.90
7494;DHT22;3788;49.902;8.590;2023-02-22T07:01:15;4.10;99.90
7494;DHT22;3788;49.902;8.590;2023-02-22T07:03:41;4.10;99.90
7494;DHT22;3788;49.902;8.590;2023-02-22T07:06:08;4.20;99.90
7494;DHT22;3788;49.902;8.590;2023-02-22T07:08:35;4.20;99.90
7494;DHT22;3788;49.902;8.590;2023-02-22T07:11:03;4.20;99.90
7494;DHT22;3788;49.902;8.590;2023-02-22T07:13:29;4.30;99.90
7494;DHT22;3788;49.902;8.590;2023-02-22T07:15:57;4.30;99.90
7494;DHT22;3788;49.902;8.590;2023-02-22T07:18:24;4.30;99.90
7494;DHT22;3788;49.902;8.590;2023-02-22T07:20:51;4.30;99.90
7494;DHT22;3788;49.902;8.590;2023-02-22T07:23:19;4.30;99.90
7494;DHT22;3788;49.902;8.590;2023-02-22T07:25:45;4.20;99.90
7494;DHT22;3788;49.902;8.590;2023-02-22T07:28:12;4.20;99.90
7494;DHT22;3788;49.902;8.590;2023-02-22T07:30:39;4.20;99.90
7494;DHT22;3788;49.902;8.590;2023-02-22T07:33:08;4.20;99.90
7494;DHT22;3788;49.902;8.590;2023-02-22T07:35:37;4.20;99.90
7494;DHT22;3788;49.902;8.590;2023-02-22T07:38:05;4.20;99.90
7494;DHT22;3788;49.902;8.590;2023-02-22T07:40:34;4.20;99.90
7494;DHT22;3788;49.902;8.590;2023-02-22T07:43:02;4.20;99.90
7494;DHT22;3788;49.902;8.590;2023-02-22T07:45:30;4.20;99.90
7494;DHT22;3788;49.902;8.590;2023-02-22T07:47:58;4.20;99.90
7494;DHT22;3788;49.902;8.590;2023-02-22T07:50:28;4.20;99.90
7494;DHT22;3788;49.902;8.590;2023-02-22T07:52:56;4.30;99.90
7494;DHT22;3788;49.902;8.590;2023-02-22T07:55:25;4.20;99.90
7494;DHT22;3788;49.902;8.590;2023-02-22T07:57:53;4.30;99.90
7494;DHT22;3788;49.902;8.590;2023-02-22T08:00:22;4.40;99.90
7494;DHT22;3788;49.902;8.590;2023-02-22T08:02:49;4.40;99.90
7494;DHT22;3788;49.902;8.590;2023-02-22T08:05:16;4.40;99.90
7494;DHT22;3788;49.902;8.590;2023-02-22T08:07:45;4.40;99.90
7494;DHT22;3788;49.902;8.590;2023-02-22T08:10:13;4.50;99.90
7494;DHT22;3788;49.902;8.590;2023-02-22T08:12:40;4.60;99.90
7494;DHT22;3788;49.902;8.590;2023-02-22T08:15:09;4.70;99.90
7494;DHT22;3788;49.902;8.590;2023-02-22T08:17:41;4.80;99.90
7494;DHT22;3788;49.902;8.590;2023-02-22T08:20:08;4.90;99.90
7494;DHT22;3788;49.902;8.590;2023-02-22T08:22:34;5.00;99.90
7494;DHT22;3788;49.902;8.590;2023-02-22T08:25:03;5.10;99.90
7494;DHT22;3788;49.902;8.590;2023-02-22T08:27:31;5.20;99.90
7494;DHT22;3788;49.902;8.590;2023-02-22T08:29:58;5.20;99.90
7494;DHT22;3788;49.902;8.590;2023-02-22T08:32:25;5.30;99.90
7494;DHT22;3788;49.902;8.590;2023-02-22T08:34:52;5.30;99.90
7494;DHT22;3788;49.902;8.590;2023-02-22T08:37:19;5.40;99.90
7494;DHT22;3788;49.902;8.590;2023-02-22T08:39:45;5.60;99.90
7494;DHT22;3788;49.902;8.590;2023-02-22T08:42:13;5.70;99.90
7494;DHT22;3788;49.902;8.590;2023-02-22T08:44:40;5.70;99.90
7494;DHT22;3788;49.902;8.590;2023-02-22T08:47:07;5.80;99.90
7494;DHT22;3788;49.902;8.590;2023-02-22T08:49:34;5.90;99.90
7494;DHT22;3788;49.902;8.590;2023-02-22T08:52:01;6.00;99.90
7494;DHT22;3788;49.902;8.590;2023-02-22T08:54:27;6.10;99.90
7494;DHT22;3788;49.902;8.590;2023-02-22T08:56:54;6.30;99.90
7494;DHT22;3788;49.902;8.590;2023-02-22T08:59:22;6.50;99.90
7494;DHT22;3788;49.902;8.590;2023-02-22T09:01:49;6.70;99.90
7494;DHT22;3788;49.902;8.590;2023-02-22T09:04:16;6.80;99.90
7494;DHT22;3788;49.902;8.590;2023-02-22T09:06:43;7.00;99.90
7494;DHT22;3788;49.902;8.590;2023-02-22T09:09:16;7.00;99.90
7494;DHT22;3788;49.902;8.590;2023-02-22T09:11:45;7.10;99.90
7494;DHT22;3788;49.902;8.590;2023-02-22T09:14:12;7.20;99.90
7494;DHT22;3788;49.902;8.590;2023-02-22T09:16:42;7.30;99.90
7494;DHT22;3788;49.902;8.590;2023-02-22T09:19:17;7.30;99.90
7494;DHT22;3788;49.902;8.590;2023-02-22T09:21:44;7.30;99.90
7494;DHT22;3788;49.902;8.590;2023-02-22T09:24:11;7.30;99.90
7494;DHT22;3788;49.902;8.590;2023-02-22T09:26:38;7.20;99.90
7494;DHT22;3788;49.902;8.590;2023-02-22T09:29:07;7.30;99.90
7494;DHT22;3788;49.902;8.590;2023-02-22T09:31:36;7.30;99.90
7494;DHT22;3788;49.902;8.590;2023-02-22T09:34:06;7.40;99.90
7494;DHT22;3788;49.902;8.590;2023-02-22T09:36:39;7.50;99.90
7494;DHT22;3788;49.902;8.590;2023-02-22T09:39:05;7.60;99.90
7494;DHT22;3788;49.902;8.590;2023-02-22T09:41:37;7.60;99.90
7494;DHT22;3788;49.902;8.590;2023-02-22T09:44:14;7.80;99.90
7494;DHT22;3788;49.902;8.590;2023-02-22T09:46:44;7.80;99.90
7494;DHT22;3788;49.902;8.590;2023-02-22T09:49:20;7.90;99.90
7494;DHT22;3788;49.902;8.590;2023-02-22T09:51:53;8.10;99.90
7494;DHT22;3788;49.902;8.590;2023-02-22T09:54:24;8.10;99.90
7494;DHT22;3788;49.902;8.590;2023-02-22T09:56:55;8.20;99.90
7494;DHT22;3788;49.902;8.590;2023-02-22T09:59:26;8.30;99.90
7494;DHT22;3788;49.902;8.590;2023-02-22T10:01:58;8.40;99.90
7494;DHT22;3788;49.902;8.590;2023-02-22T10:04:36;8.60;99.90
7494;DHT22;3788;49.902;8.590;2023-02-22T10:07:14;8.90;99.90
7494;DHT22;3788;49.902;8.590;2023-02-22T10:09:43;9.20;99.90
7494;DHT22;3788;49.902;8.590;2023-02-22T10:12:14;9.50;99.90
7494;DHT22;3788;49.902;8.590;2023-02-22T10:14:51;9.70;99.90
7494;DHT22;3788;49.902;8.590;2023-02-22T10:17:31;9.80;99.90
7494;DHT22;3788;49.902;8.590;2023-02-22T10:20:18;9.90;99.90
7494;DHT22;3788;49.902;8.590;2023-02-22T10:22:59;10.00;99.90
7494;DHT22;3788;49.902;8.590;2023-02-22T10:25:30;10.20;99.90
7494;DHT22;3788;49.902;8.590;2023-02-22T10:28:03;10.30;99.90
7494;DHT22;3788;49.902;8.590;2023-02-22T10:30:33;10.50;99.90
7494;DHT22;3788;49.902;8.590;2023-02-22T10:33:05;10.60;99.80
7494;DHT22;3788;49.902;8.590;2023-02-22T10:35:37;10.60;99.30
7494;DHT22;3788;49.902;8.590;2023-02-22T10:38:12;10.60;98.90
7494;DHT22;3788;49.902;8.590;2023-02-22T10:40:42;10.50;99.10
7494;DHT22;3788;49.902;8.590;2023-02-22T10:43:11;10.60;99.40
7494;DHT22;3788;49.902;8.590;2023-02-22T10:45:38;10.60;99.40
7494;DHT22;3788;49.902;8.590;2023-02-22T10:48:08;10.70;99.30
7494;DHT22;3788;49.902;8.590;2023-02-22T10:50:39;10.80;99.30
7494;DHT22;3788;49.902;8.590;2023-02-22T10:53:06;10.70;99.30
7494;DHT22;3788;49.902;8.590;2023-02-22T10:55:34;10.80;99.30
7494;DHT22;3788;49.902;8.590;2023-02-22T11:00:30;10.80;99.20
7494;DHT22;3788;49.902;8.590;2023-02-22T11:02:59;10.80;99.20
7494;DHT22;3788;49.902;8.590;2023-02-22T11:05:33;10.80;99.20
7494;DHT22;3788;49.902;8.590;2023-02-22T11:08:17;10.80;99.30
7494;DHT22;3788;49.902;8.590;2023-02-22T11:10:49;10.90;99.30
7494;DHT22;3788;49.902;8.590;2023-02-22T11:13:17;10.90;99.20
7494;DHT22;3788;49.902;8.590;2023-02-22T11:15:44;10.90;99.10
7494;DHT22;3788;49.902;8.590;2023-02-22T11:18:24;10.90;99.10
7494;DHT22;3788;49.902;8.590;2023-02-22T11:20:59;10.90;99.10
7494;DHT22;3788;49.902;8.590;2023-02-22T11:23:28;10.90;99.20
7494;DHT22;3788;49.902;8.590;2023-02-22T11:26:05;11.00;99.20
7494;DHT22;3788;49.902;8.590;2023-02-22T11:28:34;11.10;99.10
7494;DHT22;3788;49.902;8.590;2023-02-22T11:31:13;11.10;99.00
7494;DHT22;3788;49.902;8.590;2023-02-22T11:33:48;11.10;99.00
7494;DHT22;3788;49.902;8.590;2023-02-22T11:36:31;11.10;99.00
7494;DHT22;3788;49.902;8.590;2023-02-22T11:38:59;11.20;99.10
7494;DHT22;3788;49.902;8.590;2023-02-22T11:41:31;11.30;99.10
7494;DHT22;3788;49.902;8.590;2023-02-22T11:44:12;11.40;98.90
7494;DHT22;3788;49.902;8.590;2023-02-22T11:46:40;11.40;98.60
7494;DHT22;3788;49.902;8.590;2023-02-22T11:49:10;11.50;98.40
7494;DHT22;3788;49.902;8.590;2023-02-22T11:51:45;11.50;98.40
7494;DHT22;3788;49.902;8.590;2023-02-22T11:54:33;11.50;98.50
7494;DHT22;3788;49.902;8.590;2023-02-22T11:57:14;11.60;98.40
7494;DHT22;3788;49.902;8.590;2023-02-22T11:59:54;11.70;98.50
7494;DHT22;3788;49.902;8.590;2023-02-22T12:02:34;11.70;98.40
7494;DHT22;3788;49.902;8.590;2023-02-22T12:05:13;11.80;98.20
7494;DHT22;3788;49.902;8.590;2023-02-22T12:07:53;11.90;98.10
7494;DHT22;3788;49.902;8.590;2023-02-22T12:10:34;11.90;98.00
7494;DHT22;3788;49.902;8.590;2023-02-22T12:13:17;11.90;97.90
7494;DHT22;3788;49.902;8.590;2023-02-22T12:15:53;11.90;98.20
7494;DHT22;3788;49.902;8.590;2023-02-22T12:18:31;11.90;97.80
7494;DHT22;3788;49.902;8.590;2023-02-22T12:21:05;12.00;97.80
7494;DHT22;3788;49.902;8.590;2023-02-22T12:23:40;12.00;97.80
7494;DHT22;3788;49.902;8.590;2023-02-22T12:26:13;12.00;97.80
7494;DHT22;3788;49.902;8.590;2023-02-22T12:28:44;12.00;97.80
7494;DHT22;3788;49.902;8.590;2023-02-22T12:31:17;12.10;97.90
7494;DHT22;3788;49.902;8.590;2023-02-22T12:33:50;12.20;97.80
7494;DHT22;3788;49.902;8.590;2023-02-22T12:36:24;12.30;97.80
7494;DHT22;3788;49.902;8.590;2023-02-22T12:38:58;12.30;97.60
7494;DHT22;3788;49.902;8.590;2023-02-22T12:41:35;12.40;97.40
7494;DHT22;3788;49.902;8.590;2023-02-22T12:44:07;12.40;97.30
7494;DHT22;3788;49.902;8.590;2023-02-22T12:46:39;12.60;97.30
7494;DHT22;3788;49.902;8.590;2023-02-22T12:49:13;12.70;97.20
7494;DHT22;3788;49.902;8.590;2023-02-22T12:51:44;12.90;96.50
7494;DHT22;3788;49.902;8.590;2023-02-22T12:54:17;13.00;96.30
7494;DHT22;3788;49.902;8.590;2023-02-22T12:56:52;13.10;96.10
7494;DHT22;3788;49.902;8.590;2023-02-22T12:59:25;13.30;96.10
7494;DHT22;3788;49.902;8.590;2023-02-22T13:01:57;13.30;95.60
7494;DHT22;3788;49.902;8.590;2023-02-22T13:04:25;13.30;95.60
7494;DHT22;3788;49.902;8.590;2023-02-22T13:07:03;13.40;95.40
7494;DHT22;3788;49.902;8.590;2023-02-22T13:09:48;13.40;95.40
7494;DHT22;3788;49.902;8.590;2023-02-22T13:12:23;13.40;95.50
7494;DHT22;3788;49.902;8.590;2023-02-22T13:15:03;13.50;95.50
7494;DHT22;3788;49.902;8.590;2023-02-22T13:17:36;13.50;95.20
7494;DHT22;3788;49.902;8.590;2023-02-22T13:20:11;13.50;95.20
7494;DHT22;3788;49.902;8.590;2023-02-22T13:22:44;13.60;95.30
7494;DHT22;3788;49.902;8.590;2023-02-22T13:25:15;13.60;95.10
7494;DHT22;3788;49.902;8.590;2023-02-22T13:27:49;13.70;95.00
7494;DHT22;3788;49.902;8.590;2023-02-22T13:30:21;13.70;94.90
7494;DHT22;3788;49.902;8.590;2023-02-22T13:35:53;13.80;94.80
7494;DHT22;3788;49.902;8.590;2023-02-22T13:41:50;13.80;94.80
7494;DHT22;3788;49.902;8.590;2023-02-22T13:44:44;13.80;94.60
7494;DHT22;3788;49.902;8.590;2023-02-22T13:47:37;13.80;94.70
7494;DHT22;3788;49.902;8.590;2023-02-22T13:53:14;13.80;94.90
7494;DHT22;3788;49.902;8.590;2023-02-22T13:55:46;13.80;95.00
7494;DHT22;3788;49.902;8.590;2023-02-22T13:58:17;13.80;95.10
7494;DHT22;3788;49.902;8.590;2023-02-22T14:00:49;13.80;95.10
7494;DHT22;3788;49.902;8.590;2023-02-22T14:03:43;13.80;95.20
7494;DHT22;3788;49.902;8.590;2023-02-22T14:06:36;13.80;95.30
7494;DHT22;3788;49.902;8.590;2023-02-22T14:09:07;13.80;95.40
7494;DHT22;3788;49.902;8.590;2023-02-22T14:11:42;13.80;95.30
7494;DHT22;3788;49.902;8.590;2023-02-22T14:14:14;13.80;95.30
7494;DHT22;3788;49.902;8.590;2023-02-22T14:16:44;13.80;95.20
7494;DHT22;3788;49.902;8.590;2023-02-22T14:19:31;13.90;95.10
7494;DHT22;3788;49.902;8.590;2023-02-22T14:21:59;13.90;94.90
7494;DHT22;3788;49.902;8.590;2023-02-22T14:24:27;14.00;94.80
7494;DHT22;3788;49.902;8.590;2023-02-22T14:26:58;14.00;95.10
7494;DHT22;3788;49.902;8.590;2023-02-22T14:29:26;14.10;94.90
7494;DHT22;3788;49.902;8.590;2023-02-22T14:32:03;14.10;94.80
7494;DHT22;3788;49.902;8.590;2023-02-22T14:34:48;14.10;94.50
7494;DHT22;3788;49.902;8.590;2023-02-22T14:37:18;14.10;94.50
7494;DHT22;3788;49.902;8.590;2023-02-22T14:39:49;14.10;94.30
7494;DHT22;3788;49.902;8.590;2023-02-22T14:42:18;14.20;94.30
7494;DHT22;3788;49.902;8.590;2023-02-22T14:44:54;14.20;94.20
7494;DHT22;3788;49.902;8.590;2023-02-22T14:47:27;14.20;94.20
7494;DHT22;3788;49.902;8.590;2023-02-22T14:50:02;14.30;94.20
7494;DHT22;3788;49.902;8.590;2023-02-22T14:52:34;14.30;93.80
7494;DHT22;3788;49.902;8.590;2023-02-22T14:55:12;14.30;93.50
7494;DHT22;3788;49.902;8.590;2023-02-22T14:57:50;14.30;93.40
7494;DHT22;3788;49.902;8.590;2023-02-22T15:00:20;14.30;93.20
7494;DHT22;3788;49.902;8.590;2023-02-22T15:02:58;14.30;92.90
7494;DHT22;3788;49.902;8.590;2023-02-22T15:05:27;14.30;92.80
7494;DHT22;3788;49.902;8.590;2023-02-22T15:07:57;14.20;93.10
7494;DHT22;3788;49.902;8.590;2023-02-22T15:10:28;14.20;93.30
7494;DHT22;3788;49.902;8.590;2023-02-22T15:12:58;14.20;93.60
7494;DHT22;3788;49.902;8.590;2023-02-22T15:15:38;14.10;93.90
7494;DHT22;3788;49.902;8.590;2023-02-22T15:18:16;14.00;94.20
7494;DHT22;3788;49.902;8.590;2023-02-22T15:20:44;13.90;94.80
7494;DHT22;3788;49.902;8.590;2023-02-22T15:23:13;13.80;95.10
7494;DHT22;3788;49.902;8.590;2023-02-22T15:25:46;13.70;95.40
7494;DHT22;3788;49.902;8.590;2023-02-22T15:28:14;13.60;95.60
7494;DHT22;3788;49.902;8.590;2023-02-22T15:30:42;13.40;95.80
7494;DHT22;3788;49.902;8.590;2023-02-22T15:33:13;13.30;96.00
7494;DHT22;3788;49.902;8.590;2023-02-22T15:35:40;13.30;96.20
7494;DHT22;3788;49.902;8.590;2023-02-22T15:38:18;13.20;96.30
7494;DHT22;3788;49.902;8.590;2023-02-22T15:40:47;13.10;96.50
7494;DHT22;3788;49.902;8.590;2023-02-22T15:43:18;13.00;96.60
7494;DHT22;3788;49.902;8.590;2023-02-22T15:45:48;13.00;96.80
7494;DHT22;3788;49.902;8.590;2023-02-22T15:48:17;12.90;96.90
7494;DHT22;3788;49.902;8.590;2023-02-22T15:51:00;12.90;97.00
7494;DHT22;3788;49.902;8.590;2023-02-22T15:53:31;12.80;97.10
7494;DHT22;3788;49.902;8.590;2023-02-22T15:56:05;12.80;97.20
7494;DHT22;3788;49.902;8.590;2023-02-22T15:58:33;12.70;97.30
7494;DHT22;3788;49.902;8.590;2023-02-22T16:01:02;12.70;97.40
7494;DHT22;3788;49.902;8.590;2023-02-22T16:03:36;12.60;97.50
7494;DHT22;3788;49.902;8.590;2023-02-22T16:06:11;12.60;97.50
7494;DHT22;3788;49.902;8.590;2023-02-22T16:08:42;12.60;97.60
7494;DHT22;3788;49.902;8.590;2023-02-22T16:11:15;12.60;97.70
7494;DHT22;3788;49.902;8.590;2023-02-22T16:13:51;12.50;97.70
7494;DHT22;3788;49.902;8.590;2023-02-22T16:16:24;12.50;97.80
7494;DHT22;3788;49.902;8.590;2023-02-22T16:19:27;12.50;97.90
7494;DHT22;3788;49.902;8.590;2023-02-22T16:21:59;12.40;97.90
7494;DHT22;3788;49.902;8.590;2023-02-22T16:24:29;12.40;98.00
7494;DHT22;3788;49.902;8.590;2023-02-22T16:27:15;12.30;98.00
7494;DHT22;3788;49.902;8.590;2023-02-22T16:29:43;12.20;98.10
7494;DHT22;3788;49.902;8.590;2023-02-22T16:32:10;12.20;98.20
7494;DHT22;3788;49.902;8.590;2023-02-22T16:34:39;12.20;98.40
7494;DHT22;3788;49.902;8.590;2023-02-22T16:37:18;12.10;98.50
7494;DHT22;3788;49.902;8.590;2023-02-22T16:39:46;12.00;98.60
7494;DHT22;3788;49.902;8.590;2023-02-22T16:42:16;12.00;98.70
7494;DHT22;3788;49.902;8.590;2023-02-22T16:44:49;11.90;98.80
7494;DHT22;3788;49.902;8.590;2023-02-22T16:47:16;11.90;99.00
7494;DHT22;3788;49.902;8.590;2023-02-22T16:49:44;11.80;99.00
7494;DHT22;3788;49.902;8.590;2023-02-22T16:52:11;11.80;99.20